Time;durP1;ratioP1;P1;durP2;ratioP2;P2;SDS_P1;SDS_P2;PMS_P1;PMS_P2;Temp;Humidity;BMP_temperature;BMP_pressure;BME280_temperature;BME280_humidity;BME280_pressure;Samples;Min_cycle;Max_cycle;Signal;HPM_P1;HPM_P2
2023/03/16 04:56:45;;;;;;;2.63;2.42;;;-2.80;99.90;;;;;;5781498;23;20222;-74
2023/03/16 04:59:11;;;;;;;2.53;2.42;;;-2.80;99.90;;;;;;4994946;28;20219;-74
2023/03/16 05:01:38;;;;;;;2.30;2.20;;;-2.80;99.90;;;;;;4994615;28;20700;-74
2023/03/16 05:04:05;;;;;;;2.38;2.25;;;-2.80;99.90;;;;;;4995109;28;20201;-74
2023/03/16 05:06:32;;;;;;;3.63;2.53;;;-2.80;99.90;;;;;;4994474;28;20732;-74
2023/03/16 05:09:00;;;;;;;2.25;2.17;;;-2.80;99.90;;;;;;4994860;28;20677;-74
2023/03/16 05:11:26;;;;;;;3.10;2.90;;;-2.80;99.90;;;;;;4995576;28;20199;-73
2023/03/16 05:13:55;;;;;;;3.13;2.92;;;-2.80;99.90;;;;;;4994912;28;20229;-74
2023/03/16 05:16:21;;;;;;;3.13;2.92;;;-2.80;99.90;;;;;;4994973;28;20233;-74
2023/03/16 05:18:48;;;;;;;2.30;2.20;;;-2.80;99.90;;;;;;4994768;28;20210;-74
2023/03/16 05:21:15;;;;;;;3.20;2.90;;;-2.80;99.90;;;;;;4994902;28;20207;-74
2023/03/16 05:23:42;;;;;;;2.65;2.55;;;-2.80;99.90;;;;;;4995254;28;20291;-74
2023/03/16 05:26:08;;;;;;;2.80;2.70;;;-2.80;99.90;;;;;;4994837;28;20249;-74
2023/03/16 05:28:35;;;;;;;3.38;3.10;;;-2.80;99.90;;;;;;4994855;28;20229;-74
2023/03/16 05:31:03;;;;;;;2.80;2.60;;;-2.80;99.90;;;;;;4994983;28;20209;-74
2023/03/16 05:33:30;;;;;;;2.88;2.72;;;-2.80;99.90;;;;;;4994691;28;20222;-74
2023/03/16 05:35:57;;;;;;;3.42;3.22;;;-2.80;99.90;;;;;;4994559;28;20187;-74
2023/03/16 05:38:26;;;;;;;3.00;2.80;;;-2.80;99.90;;;;;;4994686;28;20206;-74
2023/03/16 05:40:53;;;;;;;3.10;2.85;;;-2.80;99.90;;;;;;4994388;28;20249;-74
2023/03/16 05:43:20;;;;;;;3.13;2.63;;;-2.80;99.90;;;;;;4994819;28;20685;-74
2023/03/16 05:45:47;;;;;;;3.55;3.20;;;-2.70;99.90;;;;;;4994448;28;20253;-74
2023/03/16 05:48:15;;;;;;;2.70;2.58;;;-2.70;99.90;;;;;;4995106;28;20222;-75
2023/03/16 05:50:42;;;;;;;3.60;3.28;;;-2.70;99.90;;;;;;4993995;28;20573;-77
2023/03/16 05:53:09;;;;;;;3.55;3.30;;;-2.60;99.90;;;;;;4994778;28;20214;-77
2023/03/16 05:55:35;;;;;;;3.60;3.17;;;-2.60;99.90;;;;;;4996348;28;20685;-77
2023/03/16 05:58:02;;;;;;;3.53;3.22;;;-2.50;99.90;;;;;;4994915;28;20226;-72
2023/03/16 06:00:29;;;;;;;4.32;3.92;;;-2.40;99.90;;;;;;4993908;28;20670;-77
2023/03/16 06:02:55;;;;;;;3.60;3.40;;;-2.30;99.90;;;;;;4996459;28;20199;-76
2023/03/16 06:05:24;;;;;;;3.97;3.70;;;-2.10;99.90;;;;;;4995297;28;20202;-76
2023/03/16 06:07:51;;;;;;;4.68;3.85;;;-1.80;99.90;;;;;;4994282;28;20292;-76
2023/03/16 06:10:18;;;;;;;4.13;3.72;;;-1.60;99.90;;;;;;4995036;28;20254;-76
2023/03/16 06:12:45;;;;;;;4.00;3.70;;;-1.20;99.90;;;;;;4994407;28;20230;-76
2023/03/16 06:15:12;;;;;;;4.25;3.85;;;-0.80;99.90;;;;;;4994391;28;20209;-76
2023/03/16 11:13:04;;;;;;;1.70;1.60;;;;;;;;;;5224372;23;20223;-77
2023/03/16 11:15:37;;;;;;;1.92;1.83;;;;;;;;;;4996762;28;20217;-77
2023/03/16 11:18:04;;;;;;;1.52;1.42;;;;;;;;;;4997049;28;20222;-77
2023/03/16 11:20:34;;;;;;;1.30;1.30;;;;;;;;;;4997049;28;20202;-77
2023/03/16 11:23:01;;;;;;;1.58;1.52;;;;;;;;;;4996407;28;20821;-77
2023/03/16 11:25:30;;;;;;;1.20;1.20;;;;;;;;;;5025961;23;20281;-79
2023/03/16 11:27:59;;;;;;;1.23;1.13;;;;;;;;;;5009002;28;20597;-79
2023/03/16 11:30:29;;;;;;;1.50;1.50;;;;;;;;;;5010199;28;20740;-79
2023/03/16 11:32:59;;;;;;;1.38;1.20;;;;;;;;;;5009354;28;20190;-79
2023/03/16 11:35:30;;;;;;;1.65;1.25;;;;;;;;;;5008421;28;20258;-79
2023/03/16 11:38:11;;;;;;;1.52;1.40;;;;;;;;;;5004503;28;20191;-79
2023/03/16 11:40:41;;;;;;;1.27;1.27;;;;;;;;;;5003557;28;20183;-78
2023/03/16 11:43:18;;;;;;;1.80;1.70;;;;;;;;;;5002650;28;20527;-78
2023/03/16 11:45:49;;;;;;;1.40;1.40;;;;;;;;;;5001806;28;20226;-79
2023/03/16 11:48:23;;;;;;;1.30;1.30;;;;;;;;;;5001163;28;20179;-80
2023/03/16 11:50:55;;;;;;;1.80;1.70;;;;;;;;;;5001135;28;20658;-75
2023/03/16 11:53:27;;;;;;;1.83;1.73;;;;;;;;;;5002485;28;20187;-79
2023/03/16 11:56:00;;;;;;;1.60;1.50;;;;;;;;;;5002339;28;20219;-79
2023/03/16 11:58:31;;;;;;;1.83;1.73;;;;;;;;;;5002163;28;20567;-79
2023/03/16 12:01:02;;;;;;;1.75;1.65;;;;;;;;;;5001795;28;20179;-79
2023/03/16 12:03:36;;;;;;;3.47;2.08;;;;;;;;;;5001087;28;20191;-79
2023/03/16 12:06:06;;;;;;;1.92;1.83;;;;;;;;;;5000602;28;20316;-79
2023/03/16 12:08:52;;;;;;;1.38;1.38;;;;;;;;;;5001265;28;20202;-79
2023/03/16 12:11:23;;;;;;;1.27;1.27;;;;;;;;;;5001180;28;20183;-79
2023/03/16 12:14:00;;;;;;;1.05;1.05;;;;;;;;;;5001402;28;20210;-79
2023/03/16 12:16:31;;;;;;;1.30;1.30;;;;;;;;;;5001536;28;20641;-79
2023/03/16 12:19:00;;;;;;;1.10;1.10;;;;;;;;;;5002129;28;20194;-79
2023/03/16 12:21:31;;;;;;;0.90;0.90;;;;;;;;;;5002850;28;20253;-78
2023/03/16 12:24:00;;;;;;;1.05;1.02;;;;;;;;;;5008869;28;20568;-78
2023/03/16 12:26:29;;;;;;;1.13;0.85;;;;;;;;;;5010711;28;20218;-78
2023/03/16 12:28:58;;;;;;;0.80;0.80;;;;;;;;;;5015503;28;20274;-78
2023/03/16 12:31:30;;;;;;;1.42;1.42;;;;;;;;;;5014135;28;20206;-79
2023/03/16 12:34:03;;;;;;;1.25;1.20;;;;;;;;;;5002061;28;20223;-80
2023/03/16 12:36:49;;;;;;;1.10;1.00;;;;;;;;;;4998561;28;20293;-79
2023/03/16 12:39:22;;;;;;;2.33;1.38;;;;;;;;;;4997370;28;20191;-79
2023/03/16 12:41:58;;;;;;;1.20;1.20;;;;;;;;;;4997271;28;20198;-80
2023/03/16 12:44:30;;;;;;;0.90;0.90;;;;;;;;;;4997588;28;20230;-80
2023/03/16 12:46:59;;;;;;;1.13;0.95;;;;;;;;;;4997737;28;20374;-79
2023/03/16 12:49:28;;;;;;;0.80;0.80;;;;;;;;;;4998705;28;20202;-79
2023/03/16 12:51:59;;;;;;;0.70;0.70;;;;;;;;;;4997390;28;20245;-79
2023/03/16 12:54:26;;;;;;;0.80;0.80;;;;;;;;;;4997144;28;20222;-78
2023/03/16 12:56:55;;;;;;;1.10;0.77;;;;;;;;;;4999203;28;20613;-79
2023/03/16 12:59:23;;;;;;;0.80;0.80;;;;;;;;;;5000819;28;20225;-79
2023/03/16 13:01:52;;;;;;;0.77;0.77;;;;;;;;;;4999339;28;20214;-78
2023/03/16 13:04:20;;;;;;;0.80;0.80;;;;;;;;;;4998328;28;20290;-79
2023/03/16 13:06:50;;;;;;;1.10;1.10;;;;;;;;;;5000942;28;20272;-78
2023/03/16 13:09:20;;;;;;;0.80;0.80;;;;;;;;;;4998695;28;20190;-79
2023/03/16 13:11:49;;;;;;;0.80;0.80;;;;;;;;;;4997729;28;20199;-78
2023/03/16 13:14:18;;;;;;;0.80;0.80;;;;;;;;;;4997422;28;20226;-78
2023/03/16 13:16:46;;;;;;;0.80;0.80;;;;;;;;;;4998451;28;20209;-79
2023/03/16 13:19:26;;;;;;;0.65;0.65;;;;;;;;;;4998453;28;20546;-79
2023/03/16 13:22:05;;;;;;;0.57;0.57;;;;;;;;;;4998990;28;20261;-81
2023/03/16 13:24:37;;;;;;;0.63;0.63;;;;;;;;;;4998394;28;20709;-79
2023/03/16 13:27:06;;;;;;;1.00;0.93;;;;;;;;;;4996199;28;20195;-79
2023/03/16 13:29:33;;;;;;;1.58;0.65;;;;;;;;;;4996039;28;20203;-79
2023/03/16 13:32:01;;;;;;;1.02;1.02;;;;;;;;;;4996148;28;20289;-79
2023/03/16 13:34:30;;;;;;;0.90;0.90;;;;;;;;;;4996841;28;20226;-78
2023/03/16 13:36:58;;;;;;;0.60;0.60;;;;;;;;;;4996443;28;20234;-78
2023/03/16 14:44:56;;;;;;;1.00;0.75;;;;;;;;;;4997548;28;20220;-76
2023/03/16 14:47:25;;;;;;;0.85;0.80;;;;;;;;;;4997242;28;20630;-76
2023/03/16 14:49:52;;;;;;;1.20;0.80;;;;;;;;;;4997207;28;20693;-76
2023/03/16 14:52:23;;;;;;;1.33;0.90;;;;;;;;;;4997025;28;20254;-76
2023/03/16 14:54:51;;;;;;;0.80;0.80;;;;;;;;;;4997318;28;20218;-76
2023/03/16 14:57:18;;;;;;;1.05;0.95;;;;;;;;;;4997334;28;20217;-76
2023/03/16 14:59:45;;;;;;;0.88;0.85;;;;;;;;;;4997357;28;20646;-77
2023/03/16 15:02:16;;;;;;;0.70;0.70;;;;;;;;;;4997206;28;20218;-76
2023/03/16 15:04:44;;;;;;;0.82;0.82;;;;;;;;;;4997045;28;20554;-76
2023/03/16 15:07:22;;;;;;;1.08;1.08;;;;;;;;;;4996832;28;20620;-76
2023/03/16 15:09:50;;;;;;;2.05;1.27;;;;;;;;;;4996663;28;20601;-76
2023/03/16 15:12:18;;;;;;;0.80;0.80;;;;;;;;;;4996956;28;20230;-76
2023/03/16 15:17:34;;;;;;;1.75;0.93;;;;;;;;;;4992619;28;20661;-76
2023/03/16 15:20:02;;;;;;;1.33;1.23;;;;;;;;;;4996958;28;20218;-76
2023/03/16 15:22:30;;;;;;;1.13;1.13;;;;;;;;;;4996785;28;20273;-76
2023/03/16 15:24:58;;;;;;;1.02;0.90;;;;;;;;;;4997010;28;20198;-76
2023/03/16 15:27:27;;;;;;;1.10;1.10;;;;;;;;;;4996858;28;20203;-76
2023/03/16 15:29:55;;;;;;;1.17;1.17;;;;;;;;;;4996660;28;20206;-76
2023/03/16 15:32:22;;;;;;;1.00;1.00;;;;;;;;;;4996669;28;20222;-76
2023/03/16 15:34:50;;;;;;;1.20;1.20;;;;;;;;;;4996333;28;20219;-76
2023/03/16 15:37:19;;;;;;;1.05;1.05;;;;;;;;;;4996473;28;20211;-76
2023/03/16 15:39:46;;;;;;;1.00;1.00;;;;;;;;;;4996525;28;20206;-76
2023/03/16 15:42:15;;;;;;;0.82;0.82;;;;;;;;;;4996427;28;20230;-77
2023/03/16 15:44:42;;;;;;;0.77;0.77;;;;;;;;;;4995996;28;20567;-76
2023/03/16 15:47:09;;;;;;;1.05;1.05;;;;;;;;;;4996144;28;20203;-76
2023/03/16 15:49:36;;;;;;;1.00;1.00;;;;;;;;;;4995255;28;20201;-76
2023/03/16 15:52:06;;;;;;;0.88;0.88;;;;;;;;;;4996273;28;20250;-76
2023/03/16 15:54:33;;;;;;;1.08;1.08;;;;;;;;;;4995873;28;20582;-76
2023/03/16 15:57:00;;;;;;;0.70;0.70;;;;;;;;;;4996303;28;20674;-76
2023/03/16 15:59:31;;;;;;;0.80;0.80;;;;;;;;;;4996512;28;20203;-76
2023/03/16 16:01:59;;;;;;;0.70;0.70;;;;;;;;;;4996515;28;20219;-76
2023/03/16 16:04:26;;;;;;;1.00;0.90;;;;;;;;;;4996566;28;20200;-76
2023/03/16 16:06:54;;;;;;;0.82;0.82;;;;;;;;;;4996349;28;20199;-76
2023/03/16 16:09:22;;;;;;;0.80;0.80;;;;;;;;;;4996235;28;20228;-76
2023/03/16 16:11:50;;;;;;;0.68;0.68;;;;;;;;;;4996094;28;20203;-76
2023/03/16 16:14:18;;;;;;;0.50;0.50;;;;;;;;;;4995965;28;20234;-76
2023/03/16 16:16:46;;;;;;;0.60;0.60;;;;;;;;;;4995704;28;20667;-76
2023/03/16 16:19:14;;;;;;;0.70;0.70;;;;;;;;;;4996148;28;20206;-76
2023/03/16 16:21:41;;;;;;;0.80;0.80;;;;;;;;;;4995986;28;20610;-76
2023/03/16 16:24:09;;;;;;;0.50;0.50;;;;;;;;;;4995350;28;20706;-76
2023/03/16 16:26:39;;;;;;;0.80;0.80;;;;;;;;;;4995713;28;20198;-76
2023/03/16 16:29:12;;;;;;;0.60;0.60;;;;;;;;;;4996199;28;20207;-76
2023/03/16 16:31:39;;;;;;;0.55;0.55;;;;;;;;;;4995415;28;20214;-76
2023/03/16 16:34:06;;;;;;;0.50;0.50;;;;;;;;;;4995334;28;20669;-76
2023/03/16 16:36:33;;;;;;;0.50;0.50;;;;;;;;;;4995663;28;20580;-75
2023/03/16 16:39:00;;;;;;;0.50;0.50;;;;;;;;;;4995580;28;20213;-76
2023/03/16 16:41:29;;;;;;;0.40;0.40;;;;;;;;;;4995412;28;20229;-75
2023/03/16 16:43:58;;;;;;;0.50;0.50;;;;;;;;;;4995231;28;20218;-76
2023/03/16 16:46:27;;;;;;;0.50;0.50;;;;;;;;;;4994860;28;20213;-76
2023/03/16 16:48:55;;;;;;;0.40;0.40;;;;;;;;;;4995300;28;20206;-77
2023/03/16 16:51:23;;;;;;;0.50;0.50;;;;;;;;;;4996439;28;20627;-76
2023/03/16 16:53:51;;;;;;;0.68;0.50;;;;;;;;;;4994798;28;20665;-75
2023/03/16 16:56:20;;;;;;;0.52;0.52;;;;;;;;;;4995145;28;20661;-76
2023/03/16 16:58:47;;;;;;;0.60;0.60;;;;;;;;;;4995149;28;20238;-76
2023/03/16 17:01:20;;;;;;;0.50;0.50;;;;;;;;;;4994857;28;20226;-77
2023/03/16 17:03:47;;;;;;;0.95;0.77;;;;;;;;;;4994815;28;20224;-76
2023/03/16 17:06:15;;;;;;;0.50;0.50;;;;;;;;;;4994943;28;20207;-76
2023/03/16 17:08:42;;;;;;;0.50;0.50;;;;;;;;;;4995122;28;20229;-75
2023/03/16 17:11:13;;;;;;;0.60;0.60;;;;;;;;;;4994865;28;20202;-76
2023/03/16 17:13:40;;;;;;;0.65;0.65;;;;;;;;;;4994535;28;20223;-76
2023/03/16 17:16:14;;;;;;;0.55;0.55;;;;;;;;;;4994778;28;20226;-76
2023/03/16 17:18:43;;;;;;;0.68;0.68;;;;;;;;;;4994780;28;20191;-76
2023/03/16 17:21:13;;;;;;;0.50;0.50;;;;;;;;;;4994771;28;20257;-76
2023/03/16 17:23:41;;;;;;;1.00;0.80;;;;;;;;;;4994576;28;20223;-77
2023/03/16 17:26:12;;;;;;;0.73;0.70;;;;;;;;;;4994357;28;20669;-75
2023/03/16 17:28:41;;;;;;;1.02;0.90;;;;;;;;;;4994833;28;20214;-77
2023/03/16 17:31:08;;;;;;;0.90;0.90;;;;;;;;;;4994807;28;20230;-77
2023/03/16 17:33:35;;;;;;;0.80;0.80;;;;;;;;;;4994588;28;20277;-77
2023/03/16 17:36:03;;;;;;;0.70;0.70;;;;;;;;;;4994242;28;20689;-77
2023/03/16 17:38:31;;;;;;;0.68;0.68;;;;;;;;;;4994708;28;20206;-77
2023/03/16 17:40:58;;;;;;;1.25;1.25;;;;;;;;;;4994796;28;20253;-78
2023/03/16 17:43:25;;;;;;;1.00;1.00;;;;;;;;;;4994434;28;20222;-77
2023/03/16 17:45:53;;;;;;;0.77;0.77;;;;;;;;;;4995035;28;20554;-77
2023/03/16 17:48:20;;;;;;;1.88;0.82;;;;;;;;;;4996537;28;20210;-77
2023/03/16 17:50:48;;;;;;;0.55;0.55;;;;;;;;;;4994730;28;20209;-77
2023/03/16 17:53:17;;;;;;;1.77;0.90;;;;;;;;;;4994232;28;20246;-77
2023/03/16 17:55:45;;;;;;;0.88;0.88;;;;;;;;;;4994258;28;20223;-77
2023/03/16 17:58:20;;;;;;;0.75;0.75;;;;;;;;;;4993934;28;20297;-77
2023/03/16 18:00:48;;;;;;;0.80;0.80;;;;;;;;;;4994051;28;20661;-77
2023/03/16 18:03:16;;;;;;;2.60;0.90;;;;;;;;;;4993824;28;20563;-77
2023/03/16 18:05:43;;;;;;;0.73;0.70;;;;;;;;;;4994790;28;20218;-75
2023/03/16 18:08:14;;;;;;;1.05;1.05;;;;;;;;;;4994738;28;20210;-76
2023/03/16 18:10:44;;;;;;;0.88;0.88;;;;;;;;;;4994996;28;20199;-75
2023/03/16 18:13:17;;;;;;;1.25;1.15;;;;;;;;;;4995895;28;20222;-77
2023/03/16 18:15:45;;;;;;;0.95;0.95;;;;;;;;;;4998458;28;20712;-78
2023/03/16 18:18:16;;;;;;;0.90;0.90;;;;;;;;;;4998264;28;20187;-77
2023/03/16 18:20:43;;;;;;;0.90;0.90;;;;;;;;;;4998032;28;20219;-77
2023/03/16 18:23:15;;;;;;;1.00;1.00;;;;;;;;;;4997993;28;20582;-78
2023/03/16 18:25:44;;;;;;;2.05;1.95;;;;;;;;;;4999057;28;20687;-78
2023/03/16 18:28:12;;;;;;;1.20;1.20;;;;;;;;;;4998177;28;20665;-78
2023/03/16 18:30:40;;;;;;;1.60;1.50;;;;;;;;;;4998192;28;20202;-77
2023/03/16 18:33:08;;;;;;;2.53;1.67;;;;;;;;;;4998073;28;20218;-77
2023/03/16 18:35:36;;;;;;;1.77;1.67;;;;;;;;;;4998205;28;20223;-77
2023/03/16 18:38:03;;;;;;;2.20;2.05;;;;;;;;;;4998095;28;20198;-77
2023/03/16 18:40:30;;;;;;;2.08;1.90;;;;;;;;;;4997751;28;20202;-77
2023/03/16 18:42:58;;;;;;;2.55;1.33;;;;;;;;;;4997493;28;20227;-77
2023/03/16 18:45:26;;;;;;;1.35;1.27;;;;;;;;;;4997591;28;20206;-77
2023/03/16 18:47:56;;;;;;;1.10;1.10;;;;;;;;;;4997815;28;20573;-78
2023/03/16 18:50:25;;;;;;;1.05;1.05;;;;;;;;;;4997415;28;20203;-77
2023/03/16 18:52:53;;;;;;;0.90;0.90;;;;;;;;;;4997532;28;20294;-77
2023/03/16 18:55:21;;;;;;;0.85;0.85;;;;;;;;;;4999617;28;20203;-79
2023/03/16 18:57:51;;;;;;;1.10;1.10;;;;;;;;;;4997565;28;20199;-78
2023/03/16 19:00:21;;;;;;;1.13;1.13;;;;;;;;;;4998479;28;20206;-78
2023/03/16 19:02:53;;;;;;;1.20;1.20;;;;;;;;;;4998895;28;20249;-78
2023/03/16 19:05:22;;;;;;;1.92;1.90;;;;;;;;;;4998476;28;20202;-78
2023/03/16 19:07:50;;;;;;;2.80;2.70;;;;;;;;;;5000696;28;20206;-79
2023/03/16 19:10:22;;;;;;;2.28;2.17;;;;;;;;;;5000235;28;20209;-78
2023/03/16 19:12:49;;;;;;;2.30;2.10;;;;;;;;;;4999961;28;20229;-78
2023/03/16 19:15:18;;;;;;;1.60;1.60;;;;;;;;;;4999923;28;20214;-78
2023/03/16 19:17:47;;;;;;;1.60;1.60;;;;;;;;;;4999741;28;20270;-79
2023/03/16 19:20:15;;;;;;;2.10;2.00;;;;;;;;;;4997985;28;20626;-77
2023/03/16 19:22:44;;;;;;;2.08;1.83;;;;;;;;;;4996824;28;20276;-77
2023/03/16 19:25:16;;;;;;;2.03;1.92;;;;;;;;;;4998478;28;20260;-79
2023/03/16 19:27:43;;;;;;;2.40;2.20;;;;;;;;;;5004523;28;20190;-80
2023/03/16 19:30:18;;;;;;;1.60;1.50;;;;;;;;;;5005780;28;20210;-80
2023/03/16 19:32:46;;;;;;;1.67;1.58;;;;;;;;;;5000349;28;20582;-78
2023/03/16 19:35:16;;;;;;;1.67;1.40;;;;;;;;;;4997339;28;20685;-77
2023/03/16 19:37:43;;;;;;;1.95;1.42;;;;;;;;;;4998447;28;20199;-77
2023/03/16 19:40:11;;;;;;;1.33;1.17;;;;;;;;;;4999387;28;20214;-77
2023/03/16 19:42:39;;;;;;;1.15;1.15;;;;;;;;;;4997298;28;20227;-76
2023/03/16 19:45:08;;;;;;;1.10;1.10;;;;;;;;;;4997393;28;20211;-77
2023/03/16 19:47:35;;;;;;;0.95;0.95;;;;;;;;;;4997672;28;20535;-77
2023/03/16 19:50:06;;;;;;;1.17;1.17;;;;;;;;;;5000824;28;20210;-81
2023/03/16 19:52:33;;;;;;;1.25;1.25;;;;;;;;;;4998057;28;20222;-77
2023/03/16 19:55:00;;;;;;;1.05;1.05;;;;;;;;;;4997541;28;20206;-79
2023/03/16 19:57:30;;;;;;;1.60;1.50;;;;;;;;;;4997230;28;20237;-77
2023/03/16 19:59:58;;;;;;;1.30;1.20;;;;;;;;;;4996740;28;20207;-78
2023/03/16 20:02:26;;;;;;;1.63;1.52;;;;;;;;;;4996532;28;20230;-77
2023/03/16 20:04:53;;;;;;;1.50;1.50;;;;;;;;;;4996697;28;20207;-78
2023/03/16 20:07:22;;;;;;;2.10;2.00;;;;;;;;;;4996471;28;20238;-77
2023/03/16 20:09:49;;;;;;;1.73;1.67;;;;;;;;;;4996589;28;20206;-77
2023/03/16 20:12:21;;;;;;;2.42;1.90;;;;;;;;;;4996653;28;20223;-78
2023/03/16 20:14:48;;;;;;;1.80;1.70;;;;;;;;;;4997138;28;20188;-78
2023/03/16 20:17:19;;;;;;;2.80;2.22;;;;;;;;;;4997059;28;20583;-77
2023/03/16 20:19:47;;;;;;;2.13;2.03;;;;;;;;;;4996784;28;20632;-78
2023/03/16 20:22:17;;;;;;;1.70;1.60;;;;;;;;;;4997874;28;20223;-78
2023/03/16 20:24:47;;;;;;;1.92;1.83;;;;;;;;;;4997212;28;20238;-78
2023/03/16 20:27:15;;;;;;;2.40;2.22;;;;;;;;;;4997235;28;20233;-77
2023/03/16 20:29:42;;;;;;;1.85;1.75;;;;;;;;;;4996517;28;20230;-78
2023/03/16 20:32:14;;;;;;;1.63;1.52;;;;;;;;;;4996554;28;20585;-77
2023/03/16 20:34:41;;;;;;;2.47;1.52;;;;;;;;;;4995993;28;20187;-77
2023/03/16 20:37:20;;;;;;;1.80;1.73;;;;;;;;;;4995321;28;20590;-77
2023/03/16 20:39:49;;;;;;;1.38;1.30;;;;;;;;;;4995972;28;20186;-78
2023/03/16 20:42:17;;;;;;;1.20;1.20;;;;;;;;;;4996479;28;20229;-77
2023/03/16 20:44:44;;;;;;;1.50;1.40;;;;;;;;;;4995599;28;20210;-76
2023/03/16 20:47:13;;;;;;;1.45;1.35;;;;;;;;;;4996604;28;20222;-78
2023/03/16 20:49:40;;;;;;;1.40;1.40;;;;;;;;;;4997277;28;20304;-78
2023/03/16 20:52:14;;;;;;;1.17;1.17;;;;;;;;;;4997129;28;20698;-77
2023/03/16 20:54:41;;;;;;;1.50;1.45;;;;;;;;;;4997778;28;20214;-77
2023/03/16 20:57:13;;;;;;;1.50;1.50;;;;;;;;;;4997457;28;20227;-77
2023/03/16 20:59:42;;;;;;;1.52;1.33;;;;;;;;;;4997972;28;20198;-77
2023/03/16 21:02:20;;;;;;;1.35;1.23;;;;;;;;;;4996022;28;20293;-78
2023/03/16 21:04:47;;;;;;;1.08;1.00;;;;;;;;;;4995945;28;20622;-77
2023/03/16 21:07:14;;;;;;;1.05;1.02;;;;;;;;;;4995845;28;20203;-78
2023/03/16 21:09:41;;;;;;;1.10;1.10;;;;;;;;;;4995235;28;20211;-78
2023/03/16 21:12:14;;;;;;;1.13;1.08;;;;;;;;;;4995464;28;20226;-78
2023/03/16 21:14:42;;;;;;;1.30;1.30;;;;;;;;;;4996264;28;20197;-78
2023/03/16 21:17:15;;;;;;;1.23;1.15;;;;;;;;;;4997362;28;20222;-78
2023/03/16 21:19:42;;;;;;;0.98;0.98;;;;;;;;;;5004606;28;20205;-78
2023/03/16 21:22:18;;;;;;;1.23;1.23;;;;;;;;;;5004083;28;20594;-75
2023/03/16 21:24:45;;;;;;;1.20;1.17;;;;;;;;;;4996089;28;20194;-75
2023/03/16 21:27:19;;;;;;;1.10;1.10;;;;;;;;;;4994753;28;20199;-76
2023/03/16 21:29:48;;;;;;;1.33;1.33;;;;;;;;;;4996038;28;20190;-79
2023/03/16 21:32:19;;;;;;;1.55;1.45;;;;;;;;;;5002949;28;20223;-79
2023/03/16 21:34:46;;;;;;;1.02;1.02;;;;;;;;;;5007250;28;20570;-79
2023/03/16 21:37:14;;;;;;;1.40;1.40;;;;;;;;;;4999955;28;20229;-79
2023/03/16 21:39:41;;;;;;;1.20;1.10;;;;;;;;;;5000617;28;20208;-79
2023/03/16 21:42:08;;;;;;;1.20;1.20;;;;;;;;;;4999858;28;20591;-79
2023/03/16 21:44:35;;;;;;;1.45;1.30;;;;;;;;;;4999029;28;20213;-79
2023/03/16 21:47:03;;;;;;;1.48;1.42;;;;;;;;;;5000396;28;20183;-79
2023/03/16 21:49:31;;;;;;;1.30;1.30;;;;;;;;;;5001120;28;20198;-79
2023/03/16 21:52:00;;;;;;;1.55;1.45;;;;;;;;;;5004576;28;20233;-78
2023/03/16 21:54:27;;;;;;;1.13;1.13;;;;;;;;;;5004748;28;20202;-78
2023/03/16 21:56:54;;;;;;;3.30;1.35;;;;;;;;;;5004010;28;20218;-78
2023/03/16 21:59:21;;;;;;;1.48;1.45;;;;;;;;;;5001463;28;20655;-78
2023/03/16 22:01:48;;;;;;;1.10;1.10;;;;;;;;;;5003971;28;20203;-79
2023/03/16 22:04:17;;;;;;;1.00;1.00;;;;;;;;;;5003246;28;20199;-79
2023/03/16 22:06:45;;;;;;;1.42;1.42;;;;;;;;;;5000563;28;20226;-77
2023/03/16 22:09:15;;;;;;;1.20;1.20;;;;;;;;;;4998909;28;20229;-80
2023/03/16 22:11:42;;;;;;;1.30;1.30;;;;;;;;;;4998043;28;20187;-80
2023/03/16 22:14:10;;;;;;;1.45;1.35;;;;;;;;;;4998169;28;20206;-80
2023/03/16 22:16:38;;;;;;;1.33;1.33;;;;;;;;;;4999081;28;20219;-80
2023/03/16 22:19:06;;;;;;;1.42;1.42;;;;;;;;;;4997500;28;20202;-79
2023/03/16 22:21:36;;;;;;;2.03;1.20;;;;;;;;;;4996562;28;20214;-79
2023/03/16 22:24:04;;;;;;;1.40;1.40;;;;;;;;;;4996543;28;20207;-79
2023/03/16 22:26:31;;;;;;;1.60;1.60;;;;;;;;;;4996234;28;20203;-79
2023/03/16 22:28:59;;;;;;;1.30;1.30;;;;;;;;;;4996304;28;20210;-79
